createdAt,value
2022-11-14T00:01:29.822Z,45.36
2022-11-14T00:03:58.305Z,45.09
2022-11-14T00:06:28.278Z,45.11
2022-11-14T00:08:56.774Z,44.93
2022-11-14T00:11:25.263Z,45.14
2022-11-14T00:13:55.791Z,45.39
2022-11-14T00:16:24.438Z,45.22
2022-11-14T00:18:52.986Z,45.21
2022-11-14T00:21:21.447Z,45.04
2022-11-14T00:23:51.335Z,44.95
2022-11-14T00:26:19.835Z,44.96
2022-11-14T00:28:48.341Z,44.78
2022-11-14T00:31:16.791Z,44.93
2022-11-14T00:33:45.269Z,44.70
2022-11-14T00:36:13.735Z,44.72
2022-11-14T00:38:42.366Z,44.69
2022-11-14T00:41:12.148Z,44.71
2022-11-14T00:43:40.760Z,44.92
2022-11-14T00:46:09.217Z,44.72
2022-11-14T00:48:37.809Z,44.78
2022-11-14T00:51:06.632Z,45.00
2022-11-14T00:53:35.169Z,44.47
2022-11-14T00:56:03.635Z,44.80
2022-11-14T00:58:33.580Z,44.95
2022-11-14T01:01:02.124Z,44.67
2022-11-14T01:03:30.640Z,44.94
2022-11-14T01:05:59.191Z,44.59
2022-11-14T01:08:28.490Z,44.62
2022-11-14T01:10:57.396Z,44.49
2022-11-14T01:13:25.878Z,44.64
2022-11-14T01:15:56.119Z,44.79
2022-11-14T01:18:24.589Z,45.08
2022-11-14T01:20:53.143Z,44.81
2022-11-14T01:23:21.637Z,45.11
2022-11-14T01:25:50.021Z,44.70
2022-11-14T01:28:20.550Z,44.76
2022-11-14T01:30:49.050Z,45.12
2022-11-14T01:33:18.994Z,45.08
2022-11-14T01:35:47.439Z,44.82
2022-11-14T01:38:16.316Z,45.01
2022-11-14T01:40:44.913Z,44.84
2022-11-14T01:43:27.831Z,44.91
2022-11-14T01:45:59.040Z,45.01
2022-11-14T01:48:34.258Z,44.49
2022-11-14T01:51:09.239Z,44.67
2022-11-14T01:53:37.808Z,44.81
2022-11-14T01:56:07.750Z,45.05
2022-11-14T01:58:38.369Z,44.66
2022-11-14T02:01:07.026Z,44.92
2022-11-14T02:03:39.020Z,44.59
2022-11-14T02:06:09.134Z,44.86
2022-11-14T02:08:37.720Z,44.78
2022-11-14T02:11:06.529Z,44.90
2022-11-14T02:13:34.996Z,44.71
2022-11-14T02:16:03.488Z,44.91
2022-11-14T02:18:32.371Z,44.62
2022-11-14T02:21:02.292Z,44.35
2022-11-14T02:23:33.026Z,44.36
2022-11-14T02:26:01.455Z,44.33
2022-11-14T02:28:30.324Z,44.46
2022-11-14T02:30:58.855Z,44.22
2022-11-14T02:33:27.365Z,44.69
2022-11-14T02:35:55.837Z,44.32
2022-11-14T02:38:25.682Z,44.37
2022-11-14T02:40:54.126Z,44.37
2022-11-14T02:43:22.932Z,44.56
2022-11-14T02:45:51.700Z,44.35
2022-11-14T02:48:20.230Z,44.37
2022-11-14T02:50:49.904Z,44.27
2022-11-14T02:53:18.383Z,44.46
2022-11-14T02:55:48.295Z,44.01
2022-11-14T02:58:16.767Z,44.08
2022-11-14T03:01:13.590Z,44.06
2022-11-14T03:03:33.810Z,43.91
2022-11-14T03:06:02.753Z,44.16
2022-11-14T03:08:31.442Z,43.59
2022-11-14T03:11:07.213Z,43.78
2022-11-14T03:13:35.717Z,43.89
2022-11-14T03:16:08.167Z,43.88
2022-11-14T03:18:37.010Z,43.87
2022-11-14T03:21:09.254Z,43.78
2022-11-14T03:23:37.836Z,44.06
2022-11-14T03:26:09.506Z,43.89
2022-11-14T03:28:38.407Z,43.54
2022-11-14T03:31:07.150Z,43.74
2022-11-14T03:33:35.790Z,43.67
2022-11-14T03:36:04.788Z,43.72
2022-11-14T03:38:33.948Z,43.40
2022-11-14T03:41:02.633Z,43.60
2022-11-14T03:43:34.720Z,43.62
2022-11-14T03:46:03.913Z,43.52
2022-11-14T03:48:32.795Z,43.49
2022-11-14T03:51:01.569Z,43.34
2022-11-14T03:53:30.057Z,43.43
2022-11-14T03:55:58.526Z,43.58
2022-11-14T03:58:27.257Z,43.37
2022-11-14T04:00:57.471Z,43.30
2022-11-14T04:03:26.030Z,43.35
2022-11-14T04:05:54.782Z,43.17
2022-11-14T04:08:23.285Z,43.45
2022-11-14T04:10:53.830Z,43.28
2022-11-14T04:13:22.331Z,43.27
2022-11-14T04:15:57.349Z,43.07
2022-11-14T04:18:25.915Z,43.07
2022-11-14T04:20:54.561Z,43.48
2022-11-14T04:23:23.130Z,43.08
2022-11-14T04:25:51.598Z,43.43
2022-11-14T04:28:20.058Z,43.15
2022-11-14T04:30:48.521Z,43.29
2022-11-14T04:33:18.340Z,43.11
2022-11-14T04:35:46.811Z,43.28
2022-11-14T04:38:15.228Z,43.09
2022-11-14T04:40:51.539Z,43.17
2022-11-14T04:43:20.180Z,43.30
2022-11-14T04:45:48.749Z,43.11
2022-11-14T04:48:18.579Z,43.20
2022-11-14T04:50:47.378Z,43.32
2022-11-14T04:53:15.836Z,42.98
2022-11-14T04:55:46.729Z,43.17
2022-11-14T04:58:15.399Z,43.13
2022-11-14T05:00:43.924Z,43.22
2022-11-14T05:03:12.632Z,42.99
2022-11-14T05:05:42.535Z,42.87
2022-11-14T05:08:11.036Z,43.04
2022-11-14T05:10:39.465Z,43.04
2022-11-14T05:13:08.092Z,42.96
2022-11-14T05:15:37.255Z,43.04
2022-11-14T05:18:06.324Z,42.80
2022-11-14T05:20:34.750Z,42.88
2022-11-14T05:23:04.798Z,42.90
2022-11-14T05:25:33.258Z,42.77
2022-11-14T05:28:01.726Z,42.86
2022-11-14T05:30:30.225Z,42.73
2022-11-14T05:32:58.702Z,42.76
2022-11-14T05:35:27.182Z,42.66
2022-11-14T05:37:59.041Z,42.67
2022-11-14T05:40:30.064Z,42.82
2022-11-14T05:42:58.626Z,42.80
2022-11-14T05:45:27.150Z,42.58
2022-11-14T05:47:57.114Z,42.64
2022-11-14T05:50:25.657Z,42.74
2022-11-14T05:52:54.141Z,42.62
2022-11-14T05:55:25.155Z,42.51
2022-11-14T05:57:55.212Z,42.85
2022-11-14T06:00:24.683Z,42.49
2022-11-14T06:02:54.309Z,42.40
2022-11-14T06:05:23.058Z,42.60
2022-11-14T06:07:56.815Z,42.30
2022-11-14T06:10:25.512Z,42.47
2022-11-14T06:12:55.406Z,42.47
2022-11-14T06:15:23.937Z,42.29
2022-11-14T06:17:54.020Z,42.07
2022-11-14T06:20:22.575Z,42.54
2022-11-14T06:22:51.219Z,42.46
2022-11-14T06:25:19.730Z,42.81
2022-11-14T06:27:48.363Z,43.03
2022-11-14T06:30:18.523Z,43.33
2022-11-14T06:32:47.127Z,43.05
2022-11-14T06:35:15.923Z,43.41
2022-11-14T06:37:44.407Z,43.30
2022-11-14T06:40:13.592Z,43.41
2022-11-14T06:42:42.318Z,43.19
2022-11-14T06:45:12.352Z,43.58
2022-11-14T06:47:42.214Z,43.86
2022-11-14T06:50:11.111Z,43.38
2022-11-14T06:52:39.635Z,43.40
2022-11-14T06:55:09.159Z,43.72
2022-11-14T06:57:37.821Z,43.51
2022-11-14T07:00:08.259Z,43.11
2022-11-14T07:02:36.884Z,42.92
2022-11-14T07:05:07.844Z,43.47
2022-11-14T07:07:36.635Z,43.45
2022-11-14T07:10:05.406Z,43.74
2022-11-14T07:12:33.979Z,43.84
2022-11-14T07:15:07.494Z,43.17
2022-11-14T07:17:37.020Z,43.40
2022-11-14T07:20:08.886Z,43.20
2022-11-14T07:22:37.593Z,43.00
2022-11-14T07:25:07.262Z,43.21
2022-11-14T07:27:36.386Z,42.96
2022-11-14T07:30:05.783Z,43.19
2022-11-14T07:32:34.317Z,43.39
2022-11-14T07:35:03.037Z,43.42
2022-11-14T07:37:33.016Z,43.17
2022-11-14T07:40:01.836Z,43.14
2022-11-14T07:42:30.746Z,43.29
2022-11-14T07:44:59.498Z,43.46
2022-11-14T07:47:28.501Z,42.99
2022-11-14T07:49:57.015Z,43.39
2022-11-14T07:52:39.479Z,42.91
2022-11-14T07:55:09.433Z,42.95
2022-11-14T07:57:41.165Z,43.00
2022-11-14T08:00:14.967Z,42.98
2022-11-14T08:02:43.555Z,42.67
2022-11-14T08:05:13.174Z,42.81
2022-11-14T08:07:43.106Z,42.94
2022-11-14T08:10:13.700Z,42.96
2022-11-14T08:12:42.499Z,42.93
2022-11-14T08:15:12.626Z,42.77
2022-11-14T08:17:41.210Z,42.81
2022-11-14T08:20:11.437Z,42.86
2022-11-14T08:22:39.964Z,42.57
2022-11-14T08:25:10.775Z,42.77
2022-11-14T08:27:39.360Z,42.59
2022-11-14T08:30:10.814Z,42.46
2022-11-14T08:32:39.474Z,42.58
2022-11-14T08:35:08.847Z,42.89
2022-11-14T08:37:37.382Z,43.20
2022-11-14T08:40:06.857Z,43.11
2022-11-14T08:42:36.674Z,42.72
2022-11-14T08:45:06.184Z,42.64
2022-11-14T08:47:34.773Z,42.65
2022-11-14T08:50:03.542Z,42.58
2022-11-14T08:52:32.012Z,42.64
2022-11-14T08:55:00.527Z,42.79
2022-11-14T08:57:33.917Z,42.46
2022-11-14T09:00:04.757Z,42.50
2022-11-14T09:02:33.329Z,42.42
2022-11-14T09:05:02.159Z,42.25
2022-11-14T09:07:30.853Z,41.65
2022-11-14T09:09:59.472Z,41.90
2022-11-14T09:12:28.102Z,42.13
2022-11-14T09:14:56.629Z,42.10
2022-11-14T09:17:26.688Z,42.92
2022-11-14T09:19:55.819Z,42.83
2022-11-14T09:22:24.296Z,42.62
2022-11-14T09:24:53.092Z,42.76
2022-11-14T09:27:21.726Z,42.33
2022-11-14T09:29:50.233Z,42.39
2022-11-14T09:32:18.719Z,42.44
2022-11-14T09:34:48.560Z,42.55
2022-11-14T09:37:17.087Z,42.51
2022-11-14T09:39:45.542Z,42.34
2022-11-14T09:42:27.656Z,42.55
2022-11-14T09:44:57.839Z,42.43
2022-11-14T09:47:28.820Z,42.67
2022-11-14T09:50:03.634Z,42.16
2022-11-14T09:52:36.507Z,42.51
2022-11-14T09:55:12.555Z,42.22
2022-11-14T09:57:42.864Z,42.33
2022-11-14T10:00:16.217Z,42.50
2022-11-14T10:02:56.339Z,42.19
2022-11-14T10:05:49.603Z,42.18
2022-11-14T10:08:46.091Z,42.74
2022-11-14T10:11:17.832Z,42.29
2022-11-14T10:14:00.759Z,42.21
2022-11-14T10:16:34.424Z,42.16
2022-11-14T10:19:11.222Z,42.16
2022-11-14T10:21:54.972Z,42.64
2022-11-14T10:24:52.817Z,42.66
2022-11-14T10:27:24.061Z,42.45
2022-11-14T10:30:07.336Z,42.77
2022-11-14T10:32:49.689Z,42.33
2022-11-14T10:35:20.964Z,42.69
2022-11-14T10:37:59.561Z,42.14
2022-11-14T10:40:32.059Z,42.57
2022-11-14T10:43:04.879Z,42.18
2022-11-14T10:45:42.664Z,42.43
2022-11-14T10:48:14.264Z,42.67
2022-11-14T10:50:47.483Z,42.53
2022-11-14T10:53:22.617Z,42.58
2022-11-14T10:56:04.102Z,42.38
2022-11-14T10:58:47.329Z,42.48
2022-11-14T11:01:40.412Z,42.63
2022-11-14T11:04:27.457Z,42.46
2022-11-14T11:06:57.958Z,42.50
2022-11-14T11:09:46.741Z,42.41
2022-11-14T11:12:19.367Z,42.34
2022-11-14T11:14:49.019Z,42.21
2022-11-14T11:17:21.284Z,42.38
2022-11-14T11:19:50.133Z,42.38
2022-11-14T11:22:31.197Z,42.17
2022-11-14T11:25:01.103Z,42.24
2022-11-14T11:27:30.442Z,42.32
2022-11-14T11:30:19.460Z,42.12
2022-11-14T11:32:47.974Z,42.34
2022-11-14T11:35:18.199Z,42.40
2022-11-14T11:37:50.109Z,42.57
2022-11-14T11:40:22.553Z,42.16
2022-11-14T11:45:47.775Z,42.23
2022-11-14T11:48:18.686Z,42.34
2022-11-14T11:50:47.160Z,42.66
2022-11-14T11:53:20.016Z,42.23
2022-11-14T11:55:52.385Z,42.59
2022-11-14T11:58:24.176Z,42.77
2022-11-14T12:00:55.584Z,42.72
2022-11-14T12:03:25.391Z,42.69
2022-11-14T12:06:01.080Z,42.59
2022-11-14T12:08:34.715Z,43.07
2022-11-14T12:11:05.099Z,42.86
2022-11-14T12:14:03.472Z,42.98
2022-11-14T12:17:17.946Z,43.09
2022-11-14T12:20:03.937Z,42.79
2022-11-14T12:23:34.469Z,42.97
2022-11-14T12:26:15.601Z,42.95
2022-11-14T12:29:00.972Z,43.01
2022-11-14T12:31:30.335Z,42.77
2022-11-14T12:34:00.423Z,42.94
2022-11-14T12:36:31.011Z,42.91
2022-11-14T12:38:59.606Z,42.86
2022-11-14T12:41:31.827Z,43.02
2022-11-14T12:44:21.041Z,42.85
2022-11-14T12:47:19.068Z,43.15
2022-11-14T12:50:06.422Z,42.97
2022-11-14T12:52:48.887Z,43.12
2022-11-14T12:55:56.660Z,43.05
2022-11-14T12:58:50.313Z,43.39
2022-11-14T13:01:29.364Z,43.20
2022-11-14T13:04:18.502Z,43.01
2022-11-14T13:06:55.797Z,43.48
2022-11-14T13:09:36.505Z,43.42
2022-11-14T13:12:48.922Z,43.54
2022-11-14T13:15:49.170Z,43.08
2022-11-14T13:18:41.236Z,43.09
2022-11-14T13:21:43.797Z,43.33
2022-11-14T13:24:12.804Z,43.27
2022-11-14T13:26:43.919Z,43.49
2022-11-14T13:30:02.712Z,43.69
2022-11-14T13:33:05.604Z,43.30
2022-11-14T13:35:53.100Z,43.40
2022-11-14T13:39:12.528Z,43.22
2022-11-14T13:42:24.275Z,43.33
2022-11-14T13:45:46.739Z,43.30
2022-11-14T13:48:55.402Z,43.50
2022-11-14T13:54:17.531Z,43.02
2022-11-14T13:56:57.988Z,43.38
2022-11-14T13:59:57.441Z,43.54
2022-11-14T14:02:59.236Z,43.20
2022-11-14T14:05:37.454Z,43.38
2022-11-14T14:08:23.063Z,43.72
2022-11-14T14:11:00.777Z,43.18
2022-11-14T14:13:40.439Z,43.19
2022-11-14T14:16:12.075Z,42.89
2022-11-14T14:18:49.500Z,43.08
2022-11-14T14:21:30.579Z,43.32
2022-11-14T14:24:05.764Z,43.06
2022-11-14T14:26:40.478Z,43.26
2022-11-14T14:29:20.082Z,43.36
2022-11-14T14:31:48.495Z,42.98
2022-11-14T14:34:24.546Z,42.89
2022-11-14T14:36:55.761Z,42.89
2022-11-14T14:39:25.872Z,42.80
2022-11-14T14:41:56.390Z,42.78
2022-11-14T14:44:27.889Z,42.85
2022-11-14T14:46:56.402Z,42.84
2022-11-14T14:49:26.885Z,43.76
2022-11-14T14:51:58.703Z,43.50
2022-11-14T14:54:29.481Z,42.99
2022-11-14T14:57:01.260Z,42.97
2022-11-14T14:59:31.040Z,43.16
2022-11-14T15:01:59.730Z,43.13
2022-11-14T15:04:28.650Z,43.38
2022-11-14T15:06:58.751Z,42.98
2022-11-14T15:09:29.969Z,43.52
2022-11-14T15:12:00.916Z,43.24
2022-11-14T15:14:31.781Z,43.05
2022-11-14T15:17:00.482Z,43.05
2022-11-14T15:19:31.859Z,42.84
2022-11-14T15:22:06.313Z,42.97
2022-11-14T15:24:34.985Z,42.95
2022-11-14T15:27:05.772Z,42.66
2022-11-14T15:29:34.372Z,42.66
2022-11-14T15:32:03.646Z,42.62
2022-11-14T15:34:33.205Z,42.60
2022-11-14T15:37:21.095Z,42.72
2022-11-14T15:39:49.847Z,42.81
2022-11-14T15:42:27.748Z,42.82
2022-11-14T15:44:56.393Z,42.51
2022-11-14T15:47:26.049Z,42.63
2022-11-14T15:50:00.593Z,42.47
2022-11-14T15:52:34.861Z,42.32
2022-11-14T15:55:03.730Z,42.47
2022-11-14T15:57:33.233Z,42.43
2022-11-14T16:00:02.035Z,42.51
2022-11-14T16:02:33.091Z,42.43
2022-11-14T16:05:01.854Z,42.23
2022-11-14T16:07:31.757Z,42.28
2022-11-14T16:10:00.330Z,42.43
2022-11-14T16:12:28.772Z,42.29
2022-11-14T16:14:57.483Z,41.31
2022-11-14T16:17:26.026Z,42.17
2022-11-14T16:19:54.552Z,42.27
2022-11-14T16:22:23.146Z,41.75
2022-11-14T16:24:53.849Z,42.06
2022-11-14T16:27:22.472Z,42.54
2022-11-14T16:29:51.265Z,42.40
2022-11-14T16:32:19.984Z,42.33
2022-11-14T16:34:48.459Z,42.28
2022-11-14T16:37:16.953Z,42.49
2022-11-14T16:39:45.457Z,42.29
2022-11-14T16:42:15.385Z,42.58
2022-11-14T16:44:47.886Z,42.22
2022-11-14T16:47:20.100Z,42.47
2022-11-14T16:49:49.190Z,42.57
2022-11-14T16:52:19.297Z,42.30
2022-11-14T16:54:47.892Z,42.51
2022-11-14T16:57:18.145Z,42.40
2022-11-14T16:59:46.719Z,42.24
2022-11-14T17:02:16.676Z,42.47
2022-11-14T17:04:45.516Z,42.36
2022-11-14T17:07:16.753Z,42.45
2022-11-14T17:09:48.749Z,42.54
2022-11-14T17:12:18.611Z,42.41
2022-11-14T17:14:47.175Z,42.38
2022-11-14T17:17:15.717Z,42.55
2022-11-14T17:19:46.229Z,42.81
2022-11-14T17:22:14.915Z,42.56
2022-11-14T17:24:45.351Z,42.63
2022-11-14T17:27:13.911Z,42.63
2022-11-14T17:29:43.957Z,42.61
2022-11-14T17:32:12.476Z,42.55
2022-11-14T17:34:40.957Z,42.94
2022-11-14T17:37:09.479Z,42.89
2022-11-14T17:39:38.037Z,42.87
2022-11-14T17:42:07.413Z,42.89
2022-11-14T17:44:35.879Z,43.00
2022-11-14T17:47:05.824Z,43.34
2022-11-14T17:49:34.348Z,43.14
2022-11-14T17:52:02.859Z,43.21
2022-11-14T17:54:31.401Z,43.22
2022-11-14T17:57:00.021Z,43.24
2022-11-14T17:59:28.460Z,43.47
2022-11-14T18:01:59.864Z,43.83
2022-11-14T18:04:31.159Z,43.39
2022-11-14T18:06:59.739Z,44.00
2022-11-14T18:09:29.584Z,43.65
2022-11-14T18:11:58.118Z,43.36
2022-11-14T18:14:26.644Z,43.23
2022-11-14T18:17:12.258Z,43.47
2022-11-14T18:19:43.085Z,43.35
2022-11-14T18:22:11.632Z,44.22
2022-11-14T18:24:43.415Z,43.85
2022-11-14T18:27:12.519Z,43.38
2022-11-14T18:29:40.953Z,43.60
2022-11-14T18:32:09.371Z,44.04
2022-11-14T18:34:37.879Z,44.70
2022-11-14T18:37:07.808Z,44.45
2022-11-14T18:39:36.383Z,44.40
2022-11-14T18:42:05.401Z,44.23
2022-11-14T18:44:33.938Z,44.91
2022-11-14T18:47:02.394Z,44.19
2022-11-14T18:49:30.883Z,44.25
2022-11-14T18:52:02.328Z,44.14
2022-11-14T18:54:38.064Z,43.84
2022-11-14T18:57:06.598Z,43.71
2022-11-14T18:59:47.412Z,44.13
2022-11-14T19:02:16.003Z,44.03
2022-11-14T19:04:44.491Z,44.25
2022-11-14T19:07:14.505Z,43.81
2022-11-14T19:09:45.345Z,43.71
2022-11-14T19:12:21.621Z,43.71
2022-11-14T19:14:53.943Z,43.75
2022-11-14T19:17:22.702Z,44.12
2022-11-14T19:19:53.463Z,44.02
2022-11-14T19:22:25.589Z,44.00
2022-11-14T19:24:55.926Z,43.76
2022-11-14T19:27:24.366Z,43.97
2022-11-14T19:29:54.866Z,43.72
2022-11-14T19:32:23.414Z,43.82
2022-11-14T19:34:53.894Z,43.82
2022-11-14T19:37:22.780Z,43.71
2022-11-14T19:39:55.335Z,43.66
2022-11-14T19:42:25.173Z,43.40
2022-11-14T19:44:54.336Z,43.33
2022-11-14T19:47:22.812Z,43.48
2022-11-14T19:49:51.552Z,43.34
2022-11-14T19:52:20.110Z,43.25
2022-11-14T19:54:49.277Z,43.34
2022-11-14T19:57:17.847Z,43.24
2022-11-14T19:59:48.092Z,43.19
2022-11-14T20:02:16.535Z,43.44
2022-11-14T20:04:47.795Z,43.32
2022-11-14T20:07:16.331Z,43.54
2022-11-14T20:09:47.701Z,43.26
2022-11-14T20:12:17.526Z,43.11
2022-11-14T20:14:47.488Z,43.50
2022-11-14T20:17:15.979Z,43.37
2022-11-14T20:19:44.616Z,43.30
2022-11-14T20:22:13.118Z,43.25
2022-11-14T20:24:41.533Z,43.49
2022-11-14T20:27:10.074Z,43.77
2022-11-14T20:29:39.437Z,43.64
2022-11-14T20:32:13.030Z,43.60
2022-11-14T20:34:44.213Z,43.65
2022-11-14T20:37:12.665Z,43.64
2022-11-14T20:39:42.541Z,43.58
2022-11-14T20:42:11.120Z,43.74
2022-11-14T20:44:40.628Z,43.81
2022-11-14T20:47:11.297Z,44.04
2022-11-14T20:49:40.033Z,43.60
2022-11-14T20:52:08.581Z,41.01
2022-11-14T20:54:37.038Z,43.19
2022-11-14T20:57:05.671Z,43.47
2022-11-14T20:59:34.219Z,42.88
2022-11-14T21:02:02.742Z,43.29
2022-11-14T21:04:32.658Z,43.01
2022-11-14T21:07:01.216Z,43.04
2022-11-14T21:09:29.730Z,42.96
2022-11-14T21:11:58.225Z,42.91
2022-11-14T21:14:26.719Z,43.19
2022-11-14T21:16:55.168Z,42.98
2022-11-14T21:19:24.437Z,42.92
2022-11-14T21:21:55.217Z,43.27
2022-11-14T21:24:23.890Z,43.18
2022-11-14T21:26:52.334Z,42.86
2022-11-14T21:29:20.751Z,43.14
2022-11-14T21:31:49.252Z,43.07
2022-11-14T21:34:18.209Z,43.21
2022-11-14T21:36:47.268Z,43.29
2022-11-14T21:39:17.670Z,43.07
2022-11-14T21:41:48.515Z,43.00
2022-11-14T21:44:19.309Z,42.94
2022-11-14T21:46:48.778Z,42.84
2022-11-14T21:49:19.928Z,42.83
2022-11-14T21:51:48.773Z,43.09
2022-11-14T21:54:18.638Z,42.79
2022-11-14T21:56:47.061Z,42.80
2022-11-14T21:59:18.888Z,42.95
2022-11-14T22:02:06.096Z,42.71
2022-11-14T22:04:35.618Z,42.77
2022-11-14T22:07:05.929Z,42.69
2022-11-14T22:09:39.831Z,42.86
2022-11-14T22:12:09.874Z,42.71
2022-11-14T22:14:38.468Z,42.54
2022-11-14T22:17:06.992Z,42.76
2022-11-14T22:19:35.513Z,42.92
2022-11-14T22:22:03.939Z,42.92
2022-11-14T22:24:32.352Z,42.53
2022-11-14T22:27:02.193Z,42.71
2022-11-14T22:29:30.674Z,42.80
2022-11-14T22:31:59.094Z,42.63
2022-11-14T22:34:28.953Z,42.96
2022-11-14T22:36:57.365Z,42.31
2022-11-14T22:39:25.798Z,42.43
2022-11-14T22:41:54.198Z,42.38
2022-11-14T22:44:24.242Z,42.66
2022-11-14T22:46:52.801Z,42.66
2022-11-14T22:49:21.501Z,42.66
2022-11-14T22:51:49.955Z,42.42
2022-11-14T22:54:18.718Z,42.77
2022-11-14T22:56:47.238Z,42.83
2022-11-14T22:59:15.704Z,42.23
2022-11-14T23:01:45.717Z,42.88
2022-11-14T23:04:14.187Z,42.75
2022-11-14T23:06:42.677Z,42.85
2022-11-14T23:09:11.305Z,42.35
2022-11-14T23:11:39.762Z,42.60
2022-11-14T23:14:08.195Z,42.50
2022-11-14T23:16:36.621Z,42.55
2022-11-14T23:19:06.418Z,42.35
2022-11-14T23:21:36.509Z,42.20
2022-11-14T23:24:06.442Z,42.42
2022-11-14T23:26:34.954Z,42.42
2022-11-14T23:29:03.655Z,42.32
2022-11-14T23:31:32.111Z,42.06
2022-11-14T23:34:00.590Z,42.17
2022-11-14T23:36:30.647Z,42.20
2022-11-14T23:38:59.049Z,42.18
2022-11-14T23:41:27.511Z,42.10
2022-11-14T23:43:56.001Z,42.23
2022-11-14T23:46:24.464Z,42.14
2022-11-14T23:48:53.547Z,42.00
2022-11-14T23:51:22.201Z,42.07
2022-11-14T23:53:52.070Z,42.04
2022-11-14T23:56:23.161Z,41.96
2022-11-14T23:58:51.553Z,41.94
